Time;durP1;ratioP1;P1;durP2;ratioP2;P2;SDS_P1;SDS_P2;PMS_P1;PMS_P2;Temp;Humidity;BMP_temperature;BMP_pressure;BME280_temperature;BME280_humidity;BME280_pressure;Samples;Min_cycle;Max_cycle;Signal;HPM_P1;HPM_P2
2022/12/09 00:00:51;;;;;;;23.42;12.88;;;-1.20;99.90;;;;;;5081857;28;20420;-73
2022/12/09 00:03:16;;;;;;;22.83;13.18;;;-1.20;99.90;;;;;;5068922;28;20426;-73
2022/12/09 00:05:42;;;;;;;21.48;13.02;;;-1.10;99.90;;;;;;5084504;28;20421;-73
2022/12/09 00:08:08;;;;;;;32.73;14.40;;;-1.30;99.90;;;;;;5083710;28;20498;-73
2022/12/09 00:10:33;;;;;;;56.27;17.27;;;-1.10;99.90;;;;;;5080284;28;20414;-73
2022/12/09 00:12:59;;;;;;;65.07;17.57;;;-1.20;99.90;;;;;;5072059;28;20425;-72
2022/12/09 00:15:24;;;;;;;43.63;15.27;;;-1.20;99.90;;;;;;5083855;28;20410;-73
2022/12/09 00:17:50;;;;;;;70.23;17.93;;;-1.30;99.90;;;;;;5082263;28;20420;-72
2022/12/09 00:20:16;;;;;;;63.33;17.40;;;-1.20;99.90;;;;;;5075449;28;20495;-73
2022/12/09 00:22:42;;;;;;;76.75;16.80;;;-1.10;99.90;;;;;;5085522;28;20460;-73
2022/12/09 00:25:07;;;;;;;89.00;18.90;;;-1.00;99.90;;;;;;5067526;28;20442;-73
2022/12/09 00:27:33;;;;;;;83.97;17.30;;;-1.00;99.90;;;;;;5082277;28;20418;-74
2022/12/09 00:29:59;;;;;;;52.20;15.70;;;-1.00;99.90;;;;;;5062150;28;20426;-73
2022/12/09 00:32:24;;;;;;;54.00;15.68;;;-1.30;99.90;;;;;;5084126;28;20486;-74
2022/12/09 00:34:50;;;;;;;27.00;14.15;;;-1.20;99.90;;;;;;5056088;28;20424;-73
2022/12/09 00:37:16;;;;;;;25.27;13.70;;;-1.20;99.90;;;;;;5072423;28;20926;-73
2022/12/09 00:39:41;;;;;;;44.90;16.40;;;-1.50;99.90;;;;;;5059449;28;20426;-73
2022/12/09 00:42:07;;;;;;;75.63;16.77;;;-1.60;99.90;;;;;;5083847;28;20505;-73
2022/12/09 00:44:33;;;;;;;106.20;19.07;;;-1.60;99.90;;;;;;5082484;28;20768;-73
2022/12/09 00:46:58;;;;;;;187.03;21.40;;;-1.80;99.90;;;;;;5065690;28;20458;-73
2022/12/09 00:49:24;;;;;;;138.80;19.23;;;-1.80;99.90;;;;;;5080039;28;20406;-72
2022/12/09 00:51:50;;;;;;;161.57;18.57;;;-1.80;99.90;;;;;;5074853;28;20410;-73
2022/12/09 00:54:15;;;;;;;152.90;18.55;;;-1.80;99.90;;;;;;5081141;28;20869;-73
2022/12/09 00:56:41;;;;;;;168.40;19.08;;;-1.80;99.90;;;;;;5065220;28;20697;-73
2022/12/09 00:59:07;;;;;;;138.98;18.70;;;-1.80;99.90;;;;;;5077325;28;21140;-73
2022/12/09 01:01:33;;;;;;;95.17;16.80;;;-1.70;99.90;;;;;;5063811;28;20448;-73
2022/12/09 01:03:58;;;;;;;88.70;15.53;;;-1.80;99.90;;;;;;5084489;28;20429;-73
2022/12/09 01:06:25;;;;;;;37.97;14.93;;;-1.60;99.90;;;;;;5083508;28;20416;-75
2022/12/09 01:08:51;;;;;;;19.30;13.20;;;-1.60;99.90;;;;;;5083022;28;20501;-73
2022/12/09 01:11:24;;;;;;;19.37;12.73;;;-1.50;99.90;;;;;;5083351;28;20541;-73
2022/12/09 01:13:50;;;;;;;42.03;14.55;;;-1.60;99.90;;;;;;5080247;28;21116;-73
2022/12/09 01:16:21;;;;;;;23.77;13.43;;;-1.70;99.90;;;;;;5079689;28;20453;-73
2022/12/09 01:18:48;;;;;;;18.05;12.57;;;-1.50;99.90;;;;;;5083959;28;20470;-73
2022/12/09 01:21:14;;;;;;;20.45;13.55;;;-1.70;99.90;;;;;;5071460;28;20915;-73
2022/12/09 01:23:40;;;;;;;17.95;13.35;;;-1.70;99.90;;;;;;5084327;28;20459;-72
2022/12/09 01:26:06;;;;;;;17.77;12.93;;;-1.40;99.90;;;;;;5073732;28;20418;-72
2022/12/09 01:28:37;;;;;;;19.92;13.93;;;-1.50;99.90;;;;;;5082285;28;20835;-73
2022/12/09 01:31:16;;;;;;;19.02;13.93;;;-1.50;99.90;;;;;;5064181;28;20628;-73
2022/12/09 01:33:43;;;;;;;18.13;12.43;;;-1.50;99.90;;;;;;5082599;28;20462;-73
2022/12/09 01:36:12;;;;;;;19.25;13.65;;;-1.60;99.90;;;;;;5069251;28;20940;-72
2022/12/09 01:38:38;;;;;;;21.30;15.80;;;-1.70;99.90;;;;;;5079091;28;20883;-72
2022/12/09 01:41:04;;;;;;;20.13;13.57;;;-1.40;99.90;;;;;;5080246;28;20455;-74
2022/12/09 01:43:29;;;;;;;26.03;15.03;;;-1.30;99.90;;;;;;5084179;28;20836;-73
2022/12/09 01:45:55;;;;;;;21.07;14.23;;;-1.50;99.90;;;;;;5083002;28;20425;-73
2022/12/09 01:48:33;;;;;;;20.70;14.48;;;-1.50;99.90;;;;;;5068457;28;20857;-72
2022/12/09 01:51:19;;;;;;;19.83;14.40;;;-1.40;99.90;;;;;;5083123;28;20782;-73
2022/12/09 01:53:48;;;;;;;24.90;16.40;;;-1.20;99.90;;;;;;5060789;28;20465;-73
2022/12/09 01:56:30;;;;;;;19.85;14.52;;;-1.40;99.90;;;;;;5087965;28;21011;-73
2022/12/09 01:59:01;;;;;;;22.25;15.60;;;-1.20;99.90;;;;;;5086666;28;20485;-73
2022/12/09 02:01:26;;;;;;;22.98;15.32;;;-1.40;99.90;;;;;;5042978;28;20462;-73
2022/12/09 02:03:53;;;;;;;21.42;15.30;;;-1.10;99.90;;;;;;5070969;28;20444;-73
2022/12/09 02:06:19;;;;;;;24.00;16.73;;;-1.00;99.90;;;;;;5068608;28;20835;-73
2022/12/09 02:08:46;;;;;;;21.33;15.85;;;-1.00;99.90;;;;;;5127218;22;20433;-74
2022/12/09 02:11:11;;;;;;;20.92;15.23;;;-1.20;99.90;;;;;;5031528;28;20442;-73
2022/12/09 02:13:53;;;;;;;22.65;16.13;;;-1.10;99.90;;;;;;5047238;28;20430;-73
2022/12/09 02:16:22;;;;;;;25.83;16.35;;;-0.90;99.90;;;;;;5041099;28;20921;-73
2022/12/09 02:19:20;;;;;;;21.88;16.38;;;-0.80;99.90;;;;;;5038360;28;20505;-71
2022/12/09 02:21:56;;;;;;;23.43;16.20;;;-0.90;99.90;;;;;;5047371;28;20454;-73
2022/12/09 02:24:50;;;;;;;22.88;15.52;;;-0.90;99.90;;;;;;5041837;28;20486;-74
2022/12/09 02:27:17;;;;;;;26.63;16.77;;;-0.90;99.90;;;;;;5063269;28;20547;-72
2022/12/09 02:30:07;;;;;;;21.40;14.82;;;-0.70;99.90;;;;;;5045145;28;20417;-73
2022/12/09 02:33:02;;;;;;;24.67;16.40;;;-0.80;99.90;;;;;;5048457;28;20516;-73
2022/12/09 02:35:58;;;;;;;22.38;16.50;;;-0.90;99.90;;;;;;5015475;28;20449;-74
2022/12/09 02:38:31;;;;;;;22.52;15.93;;;-1.00;99.90;;;;;;5042505;28;20480;-73
2022/12/09 02:41:06;;;;;;;24.77;16.00;;;-0.80;99.90;;;;;;5047666;28;20823;-73
2022/12/09 02:43:37;;;;;;;22.37;15.90;;;-0.80;99.90;;;;;;5045884;28;20564;-73
2022/12/09 02:46:05;;;;;;;22.08;16.02;;;-0.80;99.90;;;;;;5043257;28;20515;-72
2022/12/09 02:48:36;;;;;;;20.77;14.90;;;-0.80;99.90;;;;;;5034624;28;20428;-74
2022/12/09 02:51:09;;;;;;;23.10;16.27;;;-0.80;99.90;;;;;;5039840;28;20571;-73
2022/12/09 02:53:37;;;;;;;23.27;15.60;;;-0.90;99.90;;;;;;5041727;28;20839;-73
2022/12/09 02:56:06;;;;;;;21.48;14.90;;;-1.00;99.90;;;;;;5047178;28;20508;-72
2022/12/09 02:58:31;;;;;;;21.10;15.23;;;-1.10;99.90;;;;;;5048003;28;20439;-73
2022/12/09 03:00:57;;;;;;;21.15;15.02;;;-1.00;99.90;;;;;;5047993;28;20421;-73
2022/12/09 03:03:24;;;;;;;21.25;14.57;;;-1.00;99.90;;;;;;5046574;28;20429;-72
2022/12/09 03:06:02;;;;;;;18.92;14.40;;;-1.00;99.90;;;;;;5046022;28;20429;-73
2022/12/09 03:08:50;;;;;;;21.38;15.30;;;-1.10;99.90;;;;;;5047714;28;20511;-73
2022/12/09 03:11:21;;;;;;;25.00;16.27;;;-1.00;99.90;;;;;;5046814;28;20514;-72
2022/12/09 03:13:46;;;;;;;19.83;14.23;;;-1.10;99.90;;;;;;5048037;28;20454;-73
2022/12/09 03:16:15;;;;;;;19.65;15.15;;;-1.20;99.90;;;;;;5031597;28;20431;-72
2022/12/09 03:18:45;;;;;;;21.52;15.93;;;-1.20;99.90;;;;;;5040933;28;20785;-73
2022/12/09 03:21:15;;;;;;;24.35;15.23;;;-1.00;99.90;;;;;;5042872;28;20470;-72
2022/12/09 03:23:43;;;;;;;20.43;15.00;;;-1.20;99.90;;;;;;5044154;28;20451;-74
2022/12/09 03:26:11;;;;;;;22.10;15.30;;;-1.20;99.90;;;;;;5047157;28;20465;-73
2022/12/09 03:28:43;;;;;;;21.88;15.30;;;-1.10;99.90;;;;;;5028313;28;20867;-73
2022/12/09 03:31:13;;;;;;;19.40;14.80;;;-1.20;99.90;;;;;;5046380;28;20533;-72
2022/12/09 03:33:41;;;;;;;22.45;15.52;;;-1.20;99.90;;;;;;5046340;28;20473;-73
2022/12/09 03:36:09;;;;;;;22.55;16.17;;;-1.10;99.90;;;;;;5045812;28;20443;-71
2022/12/09 03:38:37;;;;;;;20.33;15.45;;;-1.10;99.90;;;;;;5044329;28;20469;-72
2022/12/09 03:41:28;;;;;;;21.95;16.42;;;-0.90;99.90;;;;;;5044887;28;20474;-72
2022/12/09 03:44:21;;;;;;;21.02;16.15;;;-0.90;99.90;;;;;;5028902;28;20918;-72
2022/12/09 03:46:47;;;;;;;20.27;15.73;;;-1.10;99.90;;;;;;5041753;28;20473;-73
2022/12/09 03:49:13;;;;;;;22.77;15.95;;;-1.00;99.90;;;;;;5042783;28;20421;-72
2022/12/09 03:51:59;;;;;;;22.90;15.57;;;-0.80;99.90;;;;;;5045574;28;20428;-73
2022/12/09 03:54:33;;;;;;;23.30;16.65;;;-0.70;99.90;;;;;;5045040;28;20532;-72
2022/12/09 03:56:59;;;;;;;23.35;15.93;;;-0.70;99.90;;;;;;5046285;28;20483;-73
2022/12/09 03:59:29;;;;;;;21.77;15.43;;;-1.00;99.90;;;;;;5044317;28;20787;-72
2022/12/09 04:01:55;;;;;;;20.88;16.00;;;-0.90;99.90;;;;;;5042741;28;20458;-73
2022/12/09 04:04:21;;;;;;;20.73;15.25;;;-0.80;99.90;;;;;;5046199;28;20433;-71
2022/12/09 04:06:50;;;;;;;23.42;17.23;;;-0.70;99.90;;;;;;5047319;28;20413;-72
2022/12/09 04:09:16;;;;;;;22.13;16.45;;;-0.90;99.90;;;;;;5045123;28;20478;-72
2022/12/09 04:11:42;;;;;;;24.35;17.50;;;-0.60;99.90;;;;;;5040614;28;20432;-72
2022/12/09 04:14:07;;;;;;;21.50;16.25;;;-0.90;99.90;;;;;;5037407;28;20494;-74
2022/12/09 04:16:33;;;;;;;22.52;15.98;;;-0.70;99.90;;;;;;5045218;28;20424;-73
2022/12/09 04:18:59;;;;;;;21.77;15.80;;;-0.90;99.90;;;;;;5045521;28;20448;-74
2022/12/09 04:21:24;;;;;;;21.70;15.13;;;-0.80;99.90;;;;;;5046689;28;20417;-72
2022/12/09 04:23:50;;;;;;;22.60;15.47;;;-1.00;99.90;;;;;;5041041;28;20915;-73
2022/12/09 04:26:19;;;;;;;22.50;16.97;;;-1.10;99.90;;;;;;5046108;28;20424;-73
2022/12/09 04:28:45;;;;;;;22.90;16.58;;;-1.20;99.90;;;;;;5044299;28;20608;-72
2022/12/09 04:31:12;;;;;;;20.63;15.00;;;-1.00;99.90;;;;;;5044405;28;20516;-73
2022/12/09 04:33:38;;;;;;;22.67;15.77;;;-1.20;99.90;;;;;;5035889;28;20526;-72
2022/12/09 04:36:06;;;;;;;22.35;15.63;;;-1.10;99.90;;;;;;5045097;28;21191;-72
2022/12/09 04:38:32;;;;;;;24.63;16.70;;;-1.00;99.90;;;;;;5042903;28;20853;-73
2022/12/09 04:41:02;;;;;;;21.17;15.75;;;-1.20;99.90;;;;;;5045427;28;20461;-73
2022/12/09 04:43:27;;;;;;;23.50;16.63;;;-1.00;99.90;;;;;;5044032;28;20413;-73
2022/12/09 04:45:53;;;;;;;23.92;16.83;;;-1.10;99.90;;;;;;5044934;28;20417;-72
2022/12/09 04:48:19;;;;;;;20.52;14.85;;;-1.10;99.90;;;;;;5042248;28;20427;-76
2022/12/09 04:50:45;;;;;;;20.63;16.23;;;-1.30;99.90;;;;;;5044840;28;20511;-72
2022/12/09 04:53:10;;;;;;;22.63;16.07;;;-1.30;99.90;;;;;;5044207;28;20807;-73
2022/12/09 04:55:36;;;;;;;25.23;15.63;;;-1.10;99.90;;;;;;5044197;28;20564;-73
2022/12/09 04:58:02;;;;;;;22.67;16.17;;;-1.10;99.90;;;;;;5043728;28;20425;-73
2022/12/09 05:00:28;;;;;;;24.50;16.25;;;-1.30;99.90;;;;;;5046870;28;20939;-73
2022/12/09 05:02:53;;;;;;;22.70;16.35;;;-1.10;99.90;;;;;;5045315;28;20418;-73
2022/12/09 05:05:19;;;;;;;23.60;16.53;;;-1.20;99.90;;;;;;5040407;28;20431;-75
2022/12/09 05:07:45;;;;;;;23.17;16.57;;;-1.30;99.90;;;;;;5038936;28;20420;-74
2022/12/09 05:10:11;;;;;;;22.60;15.70;;;-1.30;99.90;;;;;;5045698;28;20413;-73
2022/12/09 05:12:36;;;;;;;23.98;16.63;;;-1.20;99.90;;;;;;5039138;28;20440;-73
2022/12/09 05:15:03;;;;;;;22.08;15.65;;;-1.00;99.90;;;;;;5041872;28;20421;-73
2022/12/09 05:17:28;;;;;;;25.25;16.92;;;-1.00;99.90;;;;;;5039457;28;20421;-73
2022/12/09 05:19:54;;;;;;;22.10;16.15;;;-1.10;99.90;;;;;;5049098;28;20491;-73
2022/12/09 05:22:20;;;;;;;24.00;16.97;;;-1.00;99.90;;;;;;5047887;28;20531;-73
2022/12/09 05:24:46;;;;;;;22.83;16.63;;;-0.90;99.90;;;;;;5046156;28;20871;-73
2022/12/09 05:27:13;;;;;;;23.23;16.42;;;-1.00;99.90;;;;;;5030997;28;20524;-74
2022/12/09 05:29:38;;;;;;;27.02;16.38;;;-0.80;99.90;;;;;;5049483;28;21048;-72
2022/12/09 05:32:04;;;;;;;22.43;16.40;;;-1.00;99.90;;;;;;5048017;28;20433;-73
2022/12/09 05:34:30;;;;;;;24.00;16.65;;;-1.00;99.90;;;;;;5047524;28;21053;-73
2022/12/09 05:36:56;;;;;;;24.57;17.70;;;-0.80;99.90;;;;;;5031174;28;20469;-74
2022/12/09 05:39:22;;;;;;;23.43;16.37;;;-0.90;99.90;;;;;;5048386;28;20764;-73
2022/12/09 05:41:48;;;;;;;26.60;17.37;;;-0.90;99.90;;;;;;5049512;28;20823;-73
2022/12/09 05:44:14;;;;;;;25.42;16.92;;;-0.90;99.90;;;;;;5048563;28;20429;-74
2022/12/09 05:46:40;;;;;;;22.88;15.80;;;-1.10;99.90;;;;;;5035516;28;20832;-73
2022/12/09 05:49:05;;;;;;;26.58;16.77;;;-1.00;99.90;;;;;;5048068;28;20835;-73
2022/12/09 05:51:31;;;;;;;27.20;17.98;;;-0.80;99.90;;;;;;5049881;28;20409;-73
2022/12/09 05:54:01;;;;;;;24.55;16.92;;;-1.20;99.90;;;;;;5057794;28;20418;-72
2022/12/09 05:56:27;;;;;;;26.92;17.08;;;-1.10;99.90;;;;;;5047613;28;20786;-73
2022/12/09 05:58:53;;;;;;;23.73;16.73;;;-1.00;99.90;;;;;;5047720;28;20432;-73
2022/12/09 06:01:19;;;;;;;27.55;17.35;;;-1.00;99.90;;;;;;5048862;28;20436;-72
2022/12/09 06:03:49;;;;;;;25.23;16.50;;;-1.10;99.90;;;;;;5048696;28;20417;-73
2022/12/09 06:06:17;;;;;;;23.70;16.03;;;-1.10;99.90;;;;;;5050086;28;20450;-72
2022/12/09 06:08:44;;;;;;;26.20;17.83;;;-0.90;99.90;;;;;;5044951;28;20471;-75
2022/12/09 06:11:16;;;;;;;27.67;17.57;;;-1.00;99.90;;;;;;5049205;28;20417;-74
2022/12/09 06:13:42;;;;;;;25.45;18.27;;;-1.00;99.90;;;;;;5047122;28;20422;-73
2022/12/09 06:16:09;;;;;;;26.17;16.75;;;-1.20;99.90;;;;;;5037807;28;20480;-73
2022/12/09 06:18:35;;;;;;;25.60;17.27;;;-1.10;99.90;;;;;;5046889;28;20428;-72
2022/12/09 06:21:10;;;;;;;26.15;16.65;;;-1.10;99.90;;;;;;5047373;28;20428;-74
2022/12/09 06:23:37;;;;;;;26.80;18.13;;;-1.00;99.90;;;;;;5045777;28;20477;-74
2022/12/09 06:26:04;;;;;;;28.30;17.05;;;-1.10;99.90;;;;;;5046196;28;20465;-74
2022/12/09 06:28:30;;;;;;;23.73;16.80;;;-1.20;99.90;;;;;;5047615;28;20468;-69
2022/12/09 06:30:57;;;;;;;26.75;18.65;;;-1.00;99.90;;;;;;5045888;28;20432;-73
2022/12/09 06:33:23;;;;;;;27.07;18.47;;;-1.10;99.90;;;;;;5048023;28;20427;-73
2022/12/09 06:35:48;;;;;;;26.38;17.30;;;-1.10;99.90;;;;;;5049506;28;20894;-72
2022/12/09 06:38:14;;;;;;;27.17;17.52;;;-1.10;99.90;;;;;;5043258;28;20431;-74
2022/12/09 06:40:43;;;;;;;29.63;18.40;;;-1.40;99.90;;;;;;5048560;28;20835;-73
2022/12/09 06:43:10;;;;;;;28.00;17.77;;;-1.10;99.90;;;;;;5047239;28;20446;-72
2022/12/09 06:45:36;;;;;;;26.13;17.20;;;-1.00;99.90;;;;;;5049379;28;20432;-72
2022/12/09 06:48:03;;;;;;;26.23;17.45;;;-1.10;99.90;;;;;;5046843;28;20505;-73
2022/12/09 06:50:29;;;;;;;29.00;18.52;;;-1.10;99.90;;;;;;5035444;28;20435;-72
2022/12/09 06:52:55;;;;;;;26.98;18.45;;;-1.10;99.90;;;;;;5042231;28;20421;-72
2022/12/09 06:55:21;;;;;;;26.35;18.08;;;-1.20;99.90;;;;;;5044092;28;20440;-72
2022/12/09 06:57:46;;;;;;;30.52;19.27;;;-1.10;99.90;;;;;;5048178;28;20441;-72
2022/12/09 07:00:13;;;;;;;25.53;16.77;;;-1.10;99.90;;;;;;5045419;28;20772;-72
2022/12/09 07:02:39;;;;;;;29.48;17.30;;;-1.20;99.90;;;;;;5047973;28;20449;-77
2022/12/09 07:05:05;;;;;;;26.50;17.58;;;-0.90;99.90;;;;;;5030690;28;20507;-72
2022/12/09 07:07:31;;;;;;;30.57;18.80;;;-0.90;99.90;;;;;;5046923;28;20850;-73
2022/12/09 07:09:57;;;;;;;27.77;18.17;;;-1.20;99.90;;;;;;5038512;28;20449;-71
2022/12/09 07:12:22;;;;;;;29.48;19.25;;;-1.00;99.90;;;;;;5042560;28;20512;-72
2022/12/09 07:14:48;;;;;;;28.13;17.92;;;-0.80;99.90;;;;;;5044252;28;20848;-71
2022/12/09 07:17:16;;;;;;;31.77;18.73;;;-1.20;99.90;;;;;;5041111;28;20514;-71
2022/12/09 07:19:41;;;;;;;29.52;18.55;;;-1.10;99.90;;;;;;5026580;28;20563;-72
2022/12/09 07:22:07;;;;;;;26.27;18.67;;;-1.00;99.90;;;;;;5044528;28;20432;-72
2022/12/09 07:24:32;;;;;;;27.47;19.77;;;-0.80;99.90;;;;;;5045219;28;21153;-72
2022/12/09 07:26:58;;;;;;;29.50;18.27;;;-1.10;99.90;;;;;;5042507;28;20933;-72
2022/12/09 07:29:24;;;;;;;32.13;19.67;;;-1.10;99.90;;;;;;5046442;28;20487;-72
2022/12/09 07:31:49;;;;;;;32.38;20.15;;;-1.00;99.90;;;;;;5028927;28;20931;-73
2022/12/09 07:34:15;;;;;;;33.33;20.23;;;-0.80;99.90;;;;;;5044762;28;20429;-75
2022/12/09 07:36:41;;;;;;;32.60;20.58;;;-1.10;99.90;;;;;;5028698;28;20421;-74
2022/12/09 07:39:13;;;;;;;33.10;22.83;;;-0.90;99.90;;;;;;5045747;28;20498;-73
2022/12/09 07:41:39;;;;;;;31.73;21.33;;;-0.70;99.90;;;;;;5047003;28;20420;-72
2022/12/09 07:44:05;;;;;;;35.85;22.10;;;-0.90;99.90;;;;;;5044539;28;20844;-72
2022/12/09 07:46:30;;;;;;;34.10;21.77;;;-0.60;99.90;;;;;;5046495;28;20466;-70
2022/12/09 07:48:56;;;;;;;35.45;23.92;;;-0.80;99.90;;;;;;5045848;28;20427;-72
2022/12/09 07:51:23;;;;;;;62.72;28.30;;;-0.40;99.90;;;;;;5043798;28;20930;-71
2022/12/09 07:53:48;;;;;;;45.60;25.75;;;-0.60;99.90;;;;;;5041597;28;20434;-72
2022/12/09 07:56:16;;;;;;;70.78;28.80;;;-0.50;99.90;;;;;;5045863;28;20448;-71
2022/12/09 07:58:43;;;;;;;115.28;31.33;;;-0.80;99.90;;;;;;5047196;28;20476;-72
2022/12/09 08:01:21;;;;;;;131.30;31.65;;;-0.30;99.90;;;;;;5047383;28;20785;-72
2022/12/09 08:03:47;;;;;;;186.13;35.25;;;-0.50;99.90;;;;;;5028145;28;25126;-71
2022/12/09 08:06:16;;;;;;;187.63;35.28;;;-0.80;99.90;;;;;;5045169;28;20436;-72
2022/12/09 08:08:42;;;;;;;167.95;35.38;;;-0.30;99.90;;;;;;5044927;28;20958;-72
2022/12/09 08:11:14;;;;;;;162.80;36.22;;;-0.30;99.90;;;;;;5043480;28;20429;-75
2022/12/09 08:13:40;;;;;;;131.75;32.72;;;-0.50;99.90;;;;;;5042887;28;20433;-73
2022/12/09 08:16:08;;;;;;;91.07;28.85;;;-0.50;99.90;;;;;;5047582;28;20828;-73
2022/12/09 08:18:35;;;;;;;110.43;31.17;;;-0.50;99.90;;;;;;5046352;28;20414;-73
2022/12/09 08:21:12;;;;;;;103.18;31.30;;;-0.50;99.90;;;;;;5046837;28;20440;-72
2022/12/09 08:23:40;;;;;;;96.22;31.80;;;-0.40;99.90;;;;;;5045067;28;21364;-71
2022/12/09 08:26:07;;;;;;;53.80;26.10;;;0.00;99.90;;;;;;5045961;28;20479;-71
2022/12/09 08:28:33;;;;;;;85.82;29.55;;;-0.40;99.90;;;;;;5045355;28;20426;-72
2022/12/09 08:31:06;;;;;;;60.30;26.73;;;0.10;99.90;;;;;;5047362;28;20825;-71
2022/12/09 08:33:33;;;;;;;57.53;26.77;;;-0.40;99.90;;;;;;5045647;28;20441;-72
2022/12/09 08:36:02;;;;;;;60.72;26.20;;;0.20;99.90;;;;;;5046087;28;20456;-72
2022/12/09 08:38:30;;;;;;;64.88;28.73;;;-0.30;99.90;;;;;;5045293;28;20425;-72
2022/12/09 08:40:57;;;;;;;61.10;26.65;;;0.20;99.90;;;;;;5046407;28;20841;-71
2022/12/09 08:43:22;;;;;;;60.92;25.38;;;-0.10;99.90;;;;;;5047417;28;20413;-72
2022/12/09 08:45:48;;;;;;;76.97;27.63;;;0.00;99.90;;;;;;5045829;28;20421;-71
2022/12/09 08:48:14;;;;;;;48.20;26.63;;;-0.10;99.90;;;;;;5048046;28;20490;-72
2022/12/09 08:50:39;;;;;;;66.80;28.67;;;0.10;99.90;;;;;;5045357;28;20512;-72
2022/12/09 08:53:05;;;;;;;53.60;24.80;;;-0.20;99.90;;;;;;5042682;28;20453;-72
2022/12/09 08:55:31;;;;;;;60.38;27.17;;;-0.40;99.90;;;;;;5045043;28;20478;-72
2022/12/09 08:57:57;;;;;;;65.97;25.50;;;-0.30;99.90;;;;;;5045921;28;20417;-74
2022/12/09 09:00:22;;;;;;;53.47;25.77;;;0.00;99.90;;;;;;5043842;28;20497;-72
2022/12/09 09:02:48;;;;;;;62.85;27.33;;;-0.30;99.90;;;;;;5035655;28;20440;-72
2022/12/09 09:05:13;;;;;;;82.55;29.75;;;-0.30;99.90;;;;;;5046914;28;20835;-72
2022/12/09 09:07:39;;;;;;;55.40;27.05;;;0.00;99.90;;;;;;5043748;28;20888;-72
2022/12/09 09:10:06;;;;;;;69.13;28.30;;;-0.20;99.90;;;;;;5041859;28;20480;-73
2022/12/09 09:12:32;;;;;;;69.00;26.90;;;0.10;99.90;;;;;;5042311;28;20744;-71
2022/12/09 09:14:58;;;;;;;58.20;25.73;;;0.30;99.90;;;;;;5046186;28;20425;-71
2022/12/09 09:17:23;;;;;;;47.30;24.45;;;0.10;99.90;;;;;;5045266;28;20783;-70
2022/12/09 09:19:49;;;;;;;54.08;27.00;;;0.00;99.90;;;;;;5044623;28;20421;-70
2022/12/09 09:22:15;;;;;;;68.50;28.90;;;0.20;99.90;;;;;;5043174;28;20508;-72
2022/12/09 09:24:41;;;;;;;51.70;26.47;;;0.20;99.90;;;;;;5041879;28;20433;-70
2022/12/09 09:27:07;;;;;;;55.28;27.60;;;-0.10;99.90;;;;;;5043834;28;20496;-71
2022/12/09 09:29:33;;;;;;;56.53;26.83;;;0.30;99.90;;;;;;5044925;28;20986;-71
2022/12/09 09:31:59;;;;;;;61.00;26.45;;;0.20;99.90;;;;;;5044375;28;20919;-71
2022/12/09 09:34:26;;;;;;;59.95;28.77;;;0.40;99.90;;;;;;5045711;28;20424;-71
2022/12/09 09:36:52;;;;;;;85.50;31.70;;;0.00;99.90;;;;;;5044436;28;21029;-71
2022/12/09 09:39:19;;;;;;;59.83;28.05;;;0.40;99.90;;;;;;5044949;28;20472;-71
2022/12/09 09:41:51;;;;;;;63.05;28.73;;;0.70;99.90;;;;;;5045931;28;20774;-72
2022/12/09 09:44:47;;;;;;;62.63;28.48;;;0.70;99.90;;;;;;5045349;28;20505;-72
2022/12/09 09:47:32;;;;;;;46.70;25.70;;;0.30;99.90;;;;;;5046355;28;20472;-71
2022/12/09 09:50:27;;;;;;;46.75;26.20;;;0.40;99.90;;;;;;5045707;28;20432;-71
2022/12/09 09:52:54;;;;;;;43.10;25.20;;;0.30;99.90;;;;;;5043676;28;20550;-71
2022/12/09 09:55:39;;;;;;;48.23;25.57;;;0.70;99.90;;;;;;5041880;28;20424;-70
2022/12/09 09:58:24;;;;;;;50.58;25.48;;;0.40;99.90;;;;;;5026304;28;20534;-71
2022/12/09 10:01:12;;;;;;;56.10;25.02;;;0.40;99.90;;;;;;5040389;28;20527;-71
2022/12/09 10:04:05;;;;;;;45.95;25.98;;;0.80;99.90;;;;;;5044026;28;20441;-71
2022/12/09 10:06:59;;;;;;;49.42;26.92;;;0.70;99.90;;;;;;5030967;28;20455;-72
2022/12/09 10:09:52;;;;;;;50.35;25.88;;;0.70;99.90;;;;;;5047532;28;25100;-72
2022/12/09 10:12:30;;;;;;;63.08;26.92;;;0.70;99.90;;;;;;5048114;28;25120;-71
2022/12/09 10:15:01;;;;;;;62.92;28.55;;;0.30;99.90;;;;;;5049151;28;20749;-70
2022/12/09 10:17:48;;;;;;;61.88;28.70;;;0.80;99.90;;;;;;5048047;28;20412;-70
2022/12/09 10:20:21;;;;;;;54.85;27.05;;;0.50;99.90;;;;;;5035724;28;20443;-71
2022/12/09 10:22:57;;;;;;;72.60;29.57;;;0.30;99.90;;;;;;5047514;28;20417;-70
2022/12/09 10:25:29;;;;;;;50.97;27.08;;;0.30;99.90;;;;;;5047346;28;20454;-71
2022/12/09 10:28:20;;;;;;;77.50;29.63;;;0.50;99.90;;;;;;5048068;28;20417;-71
2022/12/09 10:30:50;;;;;;;78.15;29.50;;;0.30;99.90;;;;;;5048266;28;25103;-70
2022/12/09 10:33:17;;;;;;;76.85;29.05;;;0.80;99.90;;;;;;5049714;28;20969;-70
2022/12/09 10:35:44;;;;;;;64.03;28.67;;;0.50;99.90;;;;;;5046522;28;20441;-71
2022/12/09 10:38:15;;;;;;;68.53;29.13;;;0.80;99.90;;;;;;5048343;28;20409;-73
2022/12/09 10:40:44;;;;;;;50.93;26.10;;;0.90;99.90;;;;;;5047356;28;20783;-71
2022/12/09 10:43:35;;;;;;;83.57;31.42;;;1.00;99.90;;;;;;5048301;28;20446;-71
2022/12/09 10:46:23;;;;;;;54.72;26.52;;;0.50;99.90;;;;;;5046173;28;20503;-70
2022/12/09 10:48:48;;;;;;;72.32;27.23;;;0.70;99.90;;;;;;5047781;28;20427;-71
2022/12/09 10:51:22;;;;;;;75.23;30.93;;;0.90;99.90;;;;;;5048409;28;20410;-72
2022/12/09 10:53:52;;;;;;;78.33;27.10;;;0.70;99.90;;;;;;5046510;28;20414;-71
2022/12/09 10:56:23;;;;;;;51.92;27.63;;;0.50;99.90;;;;;;5044377;28;20415;-70
2022/12/09 10:59:06;;;;;;;66.78;30.55;;;0.90;99.90;;;;;;5049066;28;21012;-71
2022/12/09 11:01:51;;;;;;;73.65;30.40;;;0.70;99.90;;;;;;5043075;28;25104;-70
2022/12/09 11:04:32;;;;;;;65.90;30.90;;;1.00;99.90;;;;;;5047844;28;20503;-71
2022/12/09 11:07:06;;;;;;;54.70;27.67;;;1.10;99.90;;;;;;5047632;28;20420;-71
2022/12/09 11:09:40;;;;;;;64.47;31.40;;;0.90;99.90;;;;;;5046701;28;20414;-69
2022/12/09 11:12:18;;;;;;;49.60;27.35;;;1.40;99.90;;;;;;5045671;28;20520;-71
2022/12/09 11:14:51;;;;;;;45.80;27.00;;;1.20;99.90;;;;;;5048513;28;20749;-69
2022/12/09 11:17:23;;;;;;;46.58;28.08;;;1.40;99.90;;;;;;5043334;28;20421;-70
2022/12/09 11:20:06;;;;;;;43.78;27.48;;;1.20;99.90;;;;;;5047367;28;20433;-71
2022/12/09 11:22:40;;;;;;;48.65;27.83;;;1.10;99.90;;;;;;5048948;28;21027;-70
2022/12/09 11:25:20;;;;;;;43.95;26.08;;;1.20;99.90;;;;;;5048362;28;20417;-70
2022/12/09 11:28:01;;;;;;;52.93;28.23;;;1.40;99.90;;;;;;5047671;28;20923;-70
2022/12/09 11:30:30;;;;;;;37.92;24.95;;;1.00;99.90;;;;;;5047055;28;20460;-69
2022/12/09 11:33:00;;;;;;;35.65;25.25;;;1.10;99.90;;;;;;5025522;28;20436;-70
2022/12/09 11:35:43;;;;;;;35.63;23.52;;;1.30;99.90;;;;;;5045530;28;20417;-70
2022/12/09 11:38:35;;;;;;;36.38;24.30;;;1.20;99.90;;;;;;5028511;28;20432;-71
2022/12/09 11:41:13;;;;;;;61.28;29.55;;;1.10;99.90;;;;;;5046864;28;20441;-70
2022/12/09 11:43:42;;;;;;;43.90;26.83;;;1.30;99.90;;;;;;5045916;28;20425;-71
2022/12/09 11:46:11;;;;;;;44.90;26.85;;;1.10;99.90;;;;;;5043103;28;20515;-71
2022/12/09 11:48:38;;;;;;;46.72;27.90;;;1.30;99.90;;;;;;5047201;28;20430;-71
2022/12/09 11:51:04;;;;;;;48.50;28.42;;;1.00;99.90;;;;;;5044231;28;20491;-71
2022/12/09 11:53:32;;;;;;;51.25;29.05;;;1.10;99.90;;;;;;5046900;28;20429;-72
2022/12/09 11:56:14;;;;;;;45.50;29.63;;;1.10;99.90;;;;;;5044591;28;20504;-70
2022/12/09 11:58:42;;;;;;;54.95;31.60;;;1.20;99.90;;;;;;5046185;28;20429;-71
2022/12/09 12:01:20;;;;;;;58.00;32.43;;;1.30;99.90;;;;;;5040864;28;20448;-72
2022/12/09 12:03:52;;;;;;;53.75;30.75;;;1.30;99.90;;;;;;5046891;28;20423;-71
2022/12/09 12:06:22;;;;;;;50.85;30.98;;;0.90;99.90;;;;;;5046246;28;20511;-69
2022/12/09 12:09:24;;;;;;;46.90;30.53;;;1.20;99.90;;;;;;5046427;28;20413;-71
2022/12/09 12:12:16;;;;;;;53.72;32.45;;;1.00;99.90;;;;;;5040931;28;20428;-71
2022/12/09 12:14:42;;;;;;;53.15;33.40;;;1.00;99.90;;;;;;5028211;28;20428;-72
2022/12/09 12:17:15;;;;;;;57.95;34.88;;;1.10;99.90;;;;;;5045556;28;20398;-70
2022/12/09 12:19:42;;;;;;;59.42;34.60;;;1.10;99.90;;;;;;5043011;28;20961;-69
2022/12/09 12:22:45;;;;;;;54.72;32.88;;;1.40;99.90;;;;;;5043535;28;20405;-72
2022/12/09 12:25:42;;;;;;;71.15;36.17;;;1.10;99.90;;;;;;5027300;28;20960;-71
2022/12/09 12:28:27;;;;;;;66.57;37.80;;;1.40;99.90;;;;;;5045509;28;20415;-70
2022/12/09 12:31:08;;;;;;;60.25;36.03;;;1.40;99.90;;;;;;5036641;28;20431;-70
2022/12/09 12:33:40;;;;;;;58.15;35.70;;;1.10;99.90;;;;;;5031287;28;20449;-74
2022/12/09 12:36:29;;;;;;;63.30;37.95;;;1.10;99.90;;;;;;5045359;28;20571;-71
2022/12/09 12:39:28;;;;;;;63.70;37.00;;;1.40;99.90;;;;;;5042644;28;20425;-73
2022/12/09 12:42:06;;;;;;;61.35;36.80;;;1.30;99.90;;;;;;5040737;28;20432;-71
2022/12/09 12:47:53;;;;;;;59.58;34.95;;;1.50;99.90;;;;;;5040066;28;20433;-70